Terminal Aerodrome Forecast
Issued by NWS Springfield, MO

Home | Current Version | Previous Version | Text Only | Print | Product List | Glossary On
Versions: 1 2 3 4 5 6 7 8 9 10 11 12 13 14 15 16 17 18 19 20 21 22 23 24 25 26 27 28
215
FTUS43 KSGF 280520
TAFSGF
TAF
KSGF 280520Z 2806/2906 35006KT 6SM BR OVC006
     FM280900 36006KT 4SM BR OVC004
     FM281400 07005KT P6SM OVC012
     FM281800 09008KT P6SM BKN025
     FM290300 12014KT P6SM OVC025=

USA.gov is the U.S. government's official web portal to all federal, state and local government web resources and services.